createdAt,value
2018-12-23T00:01:00.755Z,7.70
2018-12-23T00:03:28.911Z,7.70
2018-12-23T00:05:57.084Z,7.70
2018-12-23T00:08:25.242Z,7.70
2018-12-23T00:10:53.388Z,7.70
2018-12-23T00:13:21.585Z,7.70
2018-12-23T00:15:49.760Z,7.70
2018-12-23T00:18:17.919Z,7.70
2018-12-23T00:20:46.089Z,7.80
2018-12-23T00:23:14.262Z,7.80
2018-12-23T00:25:42.513Z,7.80
2018-12-23T00:28:10.691Z,7.80
2018-12-23T00:30:38.893Z,7.80
2018-12-23T00:33:07.072Z,7.80
2018-12-23T00:35:35.299Z,7.80
2018-12-23T00:38:03.456Z,7.80
2018-12-23T00:40:31.693Z,7.80
2018-12-23T00:42:59.963Z,7.70
2018-12-23T00:45:28.119Z,7.70
2018-12-23T00:47:56.286Z,7.70
2018-12-23T00:50:24.439Z,7.60
2018-12-23T00:52:52.587Z,7.60
2018-12-23T00:55:20.763Z,7.60
2018-12-23T00:57:49.000Z,7.50
2018-12-23T01:00:17.245Z,7.30
2018-12-23T01:02:45.423Z,7.10
2018-12-23T01:05:13.766Z,7.00
2018-12-23T01:07:41.916Z,6.90
2018-12-23T01:10:10.174Z,6.80
2018-12-23T01:12:38.329Z,6.80
2018-12-23T01:15:06.912Z,6.70
2018-12-23T01:17:35.195Z,6.70
2018-12-23T01:20:03.532Z,6.70
2018-12-23T01:22:31.692Z,6.70
2018-12-23T01:25:44.101Z,6.70
2018-12-23T01:28:25.405Z,6.70
2018-12-23T01:31:06.809Z,6.70
2018-12-23T01:33:47.579Z,6.70
2018-12-23T01:36:28.603Z,6.70
2018-12-23T01:39:09.333Z,5.70
2018-12-23T01:41:50.520Z,6.70
2018-12-23T01:44:31.640Z,6.70
2018-12-23T01:47:12.898Z,6.70
2018-12-23T01:49:53.873Z,6.70
2018-12-23T01:52:34.510Z,6.70
2018-12-23T01:55:15.490Z,6.80
2018-12-23T01:57:56.732Z,6.80
2018-12-23T02:00:37.886Z,6.80
2018-12-23T02:03:19.240Z,6.80
2018-12-23T02:06:00.078Z,6.70
2018-12-23T02:08:41.222Z,6.70
2018-12-23T02:11:22.742Z,6.70
2018-12-23T02:14:03.787Z,6.70
2018-12-23T02:16:45.124Z,6.70
2018-12-23T02:19:26.284Z,6.70
2018-12-23T02:22:07.313Z,6.70
2018-12-23T02:24:48.670Z,6.70
2018-12-23T02:27:29.513Z,6.70
2018-12-23T02:30:10.785Z,6.70
2018-12-23T02:32:52.143Z,6.70
2018-12-23T02:35:33.184Z,6.70
2018-12-23T02:38:13.789Z,6.70
2018-12-23T02:40:54.929Z,5.80
2018-12-23T02:43:35.736Z,6.60
2018-12-23T02:46:16.867Z,6.60
2018-12-23T02:48:57.968Z,6.60
2018-12-23T02:51:38.849Z,6.60
2018-12-23T02:54:19.452Z,6.60
2018-12-23T02:57:00.584Z,6.60
2018-12-23T02:59:41.646Z,6.60
2018-12-23T03:02:22.801Z,6.60
2018-12-23T03:05:03.763Z,6.60
2018-12-23T03:07:44.420Z,6.60
2018-12-23T03:10:25.111Z,6.60
2018-12-23T03:13:06.415Z,6.60
2018-12-23T03:15:47.670Z,6.60
2018-12-23T03:18:29.162Z,6.50
2018-12-23T03:21:10.212Z,6.50
2018-12-23T03:23:51.317Z,6.50
2018-12-23T03:26:32.741Z,6.60
2018-12-23T03:29:13.650Z,6.50
2018-12-23T03:31:54.842Z,4.80
2018-12-23T03:34:35.964Z,6.60
2018-12-23T03:37:16.766Z,6.60
2018-12-23T03:39:57.697Z,6.60
2018-12-23T03:42:38.701Z,6.60
2018-12-23T03:45:19.892Z,6.60
2018-12-23T03:48:01.042Z,6.60
2018-12-23T03:50:41.741Z,6.60
2018-12-23T03:53:22.838Z,6.70
2018-12-23T03:56:04.095Z,6.70
2018-12-23T03:58:45.414Z,6.70
2018-12-23T04:01:26.521Z,6.70
2018-12-23T04:04:07.496Z,6.70
2018-12-23T04:06:48.782Z,6.70
2018-12-23T04:09:29.781Z,6.60
2018-12-23T04:12:11.145Z,6.70
2018-12-23T04:14:52.385Z,6.60
2018-12-23T04:17:33.871Z,6.60
2018-12-23T04:20:14.601Z,6.70
2018-12-23T04:22:55.411Z,6.70
2018-12-23T04:25:36.685Z,6.70
2018-12-23T04:28:17.863Z,6.70
2018-12-23T04:30:58.984Z,6.70
2018-12-23T04:33:40.185Z,6.70
2018-12-23T04:36:20.957Z,6.60
2018-12-23T04:39:01.765Z,6.70
2018-12-23T04:41:42.572Z,6.70
2018-12-23T04:44:23.996Z,6.70
2018-12-23T04:47:05.324Z,6.70
2018-12-23T04:49:46.584Z,6.70
2018-12-23T04:52:27.989Z,6.70
2018-12-23T04:55:09.354Z,6.70
2018-12-23T04:57:50.621Z,6.70
2018-12-23T05:00:31.551Z,6.70
2018-12-23T05:03:12.665Z,6.70
2018-12-23T05:05:53.578Z,6.70
2018-12-23T05:08:34.627Z,6.70
2018-12-23T05:11:15.748Z,6.70
2018-12-23T05:13:56.553Z,6.70
2018-12-23T05:16:37.665Z,6.70
2018-12-23T05:19:18.604Z,6.70
2018-12-23T05:21:59.533Z,6.70
2018-12-23T05:24:40.561Z,7.80
2018-12-23T05:27:21.446Z,6.70
2018-12-23T05:30:02.166Z,6.70
2018-12-23T05:32:43.189Z,6.70
2018-12-23T05:35:24.025Z,6.60
2018-12-23T05:38:05.143Z,6.70
2018-12-23T05:40:46.103Z,6.70
2018-12-23T05:43:26.902Z,6.70
2018-12-23T05:46:07.653Z,6.70
2018-12-23T05:48:48.546Z,6.70
2018-12-23T05:51:29.840Z,6.80
2018-12-23T05:54:10.489Z,6.80
2018-12-23T05:56:51.390Z,6.80
2018-12-23T05:59:32.298Z,6.80
2018-12-23T06:02:13.507Z,6.70
2018-12-23T06:04:54.873Z,6.70
2018-12-23T06:07:36.246Z,6.70
2018-12-23T06:10:17.193Z,6.70
2018-12-23T06:12:58.588Z,6.70
2018-12-23T06:15:39.584Z,6.60
2018-12-23T06:18:21.022Z,6.60
2018-12-23T06:21:02.408Z,6.60
2018-12-23T06:23:43.543Z,6.60
2018-12-23T06:26:24.928Z,6.60
2018-12-23T06:29:05.917Z,6.60
2018-12-23T06:31:46.977Z,6.60
2018-12-23T06:34:27.961Z,6.60
2018-12-23T06:37:10.254Z,6.60
2018-12-23T06:39:51.855Z,6.60
2018-12-23T06:42:32.664Z,6.60
2018-12-23T06:45:13.796Z,6.60
2018-12-23T06:47:55.009Z,6.60
2018-12-23T06:50:35.756Z,6.50
2018-12-23T06:53:16.465Z,6.50
2018-12-23T06:55:57.592Z,6.50
2018-12-23T06:58:38.704Z,6.40
2018-12-23T07:01:19.932Z,6.40
2018-12-23T07:04:00.657Z,6.40
2018-12-23T07:06:41.521Z,6.50
2018-12-23T07:09:22.500Z,6.50
2018-12-23T07:12:04.016Z,6.50
2018-12-23T07:14:45.549Z,6.40
2018-12-23T07:17:26.569Z,6.50
2018-12-23T07:20:07.413Z,6.50
2018-12-23T07:22:48.394Z,6.60
2018-12-23T07:25:29.465Z,6.60
2018-12-23T07:28:10.305Z,6.60
2018-12-23T07:30:51.118Z,6.60
2018-12-23T07:33:32.592Z,6.60
2018-12-23T07:36:13.160Z,6.50
2018-12-23T07:38:54.712Z,6.60
2018-12-23T07:41:35.695Z,6.60
2018-12-23T07:44:16.764Z,6.60
2018-12-23T07:46:57.633Z,6.60
2018-12-23T07:49:38.812Z,6.70
2018-12-23T07:52:19.657Z,6.80
2018-12-23T07:55:00.917Z,6.80
2018-12-23T07:57:42.493Z,6.70
2018-12-23T08:00:23.112Z,6.70
2018-12-23T08:03:04.049Z,6.70
2018-12-23T08:05:45.386Z,6.70
2018-12-23T08:08:26.494Z,6.70
2018-12-23T08:11:07.685Z,6.80
2018-12-23T08:13:48.821Z,6.90
2018-12-23T08:16:29.824Z,7.00
2018-12-23T08:19:11.077Z,7.10
2018-12-23T08:21:51.825Z,7.20
2018-12-23T08:24:32.847Z,7.20
2018-12-23T08:27:13.916Z,7.30
2018-12-23T08:29:55.384Z,7.40
2018-12-23T08:32:35.902Z,6.80
2018-12-23T08:35:16.889Z,7.60
2018-12-23T08:37:57.616Z,7.60
2018-12-23T08:40:39.165Z,7.70
2018-12-23T08:43:20.178Z,7.80
2018-12-23T08:46:00.769Z,7.80
2018-12-23T08:48:41.968Z,7.90
2018-12-23T08:51:23.137Z,7.90
2018-12-23T08:54:04.289Z,8.00
2018-12-23T08:56:45.346Z,8.00
2018-12-23T08:59:26.740Z,8.00
2018-12-23T09:02:07.845Z,8.00
2018-12-23T09:04:48.565Z,8.00
2018-12-23T09:07:29.844Z,8.00
2018-12-23T09:10:10.895Z,8.10
2018-12-23T09:12:52.279Z,8.10
2018-12-23T09:15:33.859Z,8.20
2018-12-23T09:18:19.274Z,8.30
2018-12-23T09:20:58.419Z,9.40
2018-12-23T09:23:39.569Z,8.50
2018-12-23T09:26:20.232Z,8.60
2018-12-23T09:29:01.260Z,8.70
2018-12-23T09:31:42.607Z,8.80
2018-12-23T09:34:23.222Z,8.80
2018-12-23T09:37:03.961Z,9.00
2018-12-23T09:39:44.708Z,9.00
2018-12-23T09:42:25.633Z,9.20
2018-12-23T09:45:06.729Z,9.20
2018-12-23T09:47:48.187Z,9.20
2018-12-23T09:50:28.987Z,9.40
2018-12-23T09:53:09.861Z,9.50
2018-12-23T09:55:51.249Z,9.60
2018-12-23T09:58:32.116Z,9.60
2018-12-23T10:01:13.102Z,9.80
2018-12-23T10:03:53.833Z,9.90
2018-12-23T10:06:34.838Z,9.90
2018-12-23T10:09:15.961Z,9.80
2018-12-23T10:11:57.273Z,9.80
2018-12-23T10:14:38.537Z,10.40
2018-12-23T10:17:19.980Z,10.00
2018-12-23T10:20:00.910Z,10.00
2018-12-23T10:22:41.674Z,10.10
2018-12-23T10:25:22.502Z,10.00
2018-12-23T10:28:03.572Z,10.10
2018-12-23T10:30:44.385Z,10.20
2018-12-23T10:33:25.011Z,10.30
2018-12-23T10:36:06.177Z,10.20
2018-12-23T10:38:46.802Z,10.10
2018-12-23T10:41:27.972Z,10.10
2018-12-23T10:44:08.828Z,10.10
2018-12-23T10:46:50.284Z,10.20
2018-12-23T10:49:31.134Z,10.20
2018-12-23T10:52:12.565Z,10.10
2018-12-23T10:54:53.984Z,10.00
2018-12-23T10:57:34.863Z,9.90
2018-12-23T11:00:15.473Z,9.90
2018-12-23T11:02:56.897Z,10.00
2018-12-23T11:05:37.970Z,10.00
2018-12-23T11:08:26.721Z,10.10
2018-12-23T11:11:01.979Z,10.10
2018-12-23T11:13:42.679Z,10.10
2018-12-23T11:16:23.437Z,10.10
2018-12-23T11:19:04.373Z,10.10
2018-12-23T11:21:45.264Z,10.10
2018-12-23T11:24:26.569Z,9.90
2018-12-23T11:27:07.704Z,9.90
2018-12-23T11:29:48.432Z,9.90
2018-12-23T11:32:29.896Z,10.00
2018-12-23T11:35:10.616Z,10.10
2018-12-23T11:37:51.854Z,10.10
2018-12-23T11:40:32.467Z,10.20
2018-12-23T11:43:13.888Z,10.30
2018-12-23T11:45:55.368Z,10.40
2018-12-23T11:48:36.965Z,10.40
2018-12-23T11:51:17.779Z,10.40
2018-12-23T11:53:58.728Z,10.50
2018-12-23T11:56:40.167Z,10.50
2018-12-23T11:59:21.191Z,10.60
2018-12-23T12:02:02.668Z,10.70
2018-12-23T12:04:43.505Z,10.60
2018-12-23T12:07:24.452Z,10.50
2018-12-23T12:10:05.107Z,10.40
2018-12-23T12:12:46.569Z,10.30
2018-12-23T12:15:27.635Z,10.40
2018-12-23T12:18:08.680Z,10.40
2018-12-23T12:20:49.605Z,10.40
2018-12-23T12:23:30.397Z,10.30
2018-12-23T12:26:11.425Z,10.30
2018-12-23T12:28:52.847Z,10.30
2018-12-23T12:31:34.112Z,10.20
2018-12-23T12:34:15.101Z,10.20
2018-12-23T12:36:55.888Z,10.20
2018-12-23T12:39:37.346Z,10.20
2018-12-23T12:42:18.236Z,10.20
2018-12-23T12:44:59.593Z,10.10
2018-12-23T12:47:40.984Z,10.10
2018-12-23T12:50:21.654Z,10.10
2018-12-23T12:53:02.774Z,10.00
2018-12-23T12:55:43.584Z,10.10
2018-12-23T12:58:24.897Z,10.10
2018-12-23T13:01:06.261Z,10.10
2018-12-23T13:03:47.331Z,10.10
2018-12-23T13:06:28.025Z,10.10
2018-12-23T13:09:09.152Z,10.10
2018-12-23T13:11:49.939Z,10.10
2018-12-23T13:14:30.858Z,10.10
2018-12-23T13:17:12.213Z,10.10
2018-12-23T13:19:53.164Z,10.00
2018-12-23T13:22:34.717Z,10.00
2018-12-23T13:25:15.586Z,9.90
2018-12-23T13:27:56.456Z,9.90
2018-12-23T13:30:37.429Z,9.80
2018-12-23T13:33:18.785Z,9.90
2018-12-23T13:35:59.729Z,9.80
2018-12-23T13:38:40.962Z,9.80
2018-12-23T13:41:22.066Z,9.80
2018-12-23T13:44:02.812Z,9.80
2018-12-23T13:46:43.593Z,9.70
2018-12-23T13:49:24.927Z,9.60
2018-12-23T13:52:05.670Z,9.50
2018-12-23T13:54:46.636Z,9.30
2018-12-23T13:57:27.288Z,9.30
2018-12-23T14:00:08.541Z,9.20
2018-12-23T14:02:49.745Z,9.00
2018-12-23T14:05:30.831Z,8.90
2018-12-23T14:08:11.853Z,8.80
2018-12-23T14:10:53.180Z,8.70
2018-12-23T14:13:34.512Z,8.50
2018-12-23T14:16:15.569Z,8.40
2018-12-23T14:18:56.888Z,8.30
2018-12-23T14:21:38.437Z,8.30
2018-12-23T14:24:19.769Z,8.20
2018-12-23T14:27:00.891Z,8.10
2018-12-23T14:29:41.559Z,8.00
2018-12-23T14:32:22.990Z,8.00
2018-12-23T14:35:03.988Z,7.90
2018-12-23T14:37:44.936Z,7.90
2018-12-23T14:40:25.753Z,7.80
2018-12-23T14:43:06.414Z,7.80
2018-12-23T14:45:47.048Z,7.80
2018-12-23T14:48:28.091Z,7.70
2018-12-23T14:51:09.393Z,7.70
2018-12-23T14:53:50.784Z,8.00
2018-12-23T14:56:31.360Z,7.70
2018-12-23T14:59:12.566Z,7.70
2018-12-23T15:01:54.036Z,7.70
2018-12-23T15:04:35.109Z,7.70
2018-12-23T15:07:16.159Z,7.60
2018-12-23T15:09:57.618Z,7.60
2018-12-23T15:12:38.241Z,7.60
2018-12-23T15:15:18.996Z,7.60
2018-12-23T15:17:59.953Z,7.50
2018-12-23T15:20:41.177Z,7.60
2018-12-23T15:23:22.004Z,7.50
2018-12-23T15:26:03.450Z,7.50
2018-12-23T15:28:44.808Z,7.50
2018-12-23T15:31:25.893Z,7.50
2018-12-23T15:34:06.737Z,7.50
2018-12-23T15:36:47.794Z,7.50
2018-12-23T15:39:28.620Z,7.40
2018-12-23T15:42:09.440Z,7.40
2018-12-23T15:44:50.365Z,7.30
2018-12-23T15:47:31.314Z,7.30
2018-12-23T15:50:12.536Z,7.30
2018-12-23T15:52:53.968Z,7.40
2018-12-23T15:55:34.774Z,7.40
2018-12-23T15:58:15.813Z,7.40
2018-12-23T16:00:56.968Z,7.30
2018-12-23T16:03:38.000Z,7.40
2018-12-23T16:06:19.023Z,7.40
2018-12-23T16:09:00.312Z,7.40
2018-12-23T16:11:41.136Z,7.40
2018-12-23T16:14:22.256Z,7.40
2018-12-23T16:17:03.532Z,7.50
2018-12-23T16:19:44.976Z,7.50
2018-12-23T16:22:25.720Z,7.50
2018-12-23T16:25:07.237Z,7.50
2018-12-23T16:27:48.293Z,7.60
2018-12-23T16:30:29.605Z,7.50
2018-12-23T16:33:10.673Z,7.60
2018-12-23T16:35:51.924Z,7.60
2018-12-23T16:38:33.236Z,7.60
2018-12-23T16:41:14.569Z,7.60
2018-12-23T16:43:55.537Z,7.60
2018-12-23T16:46:36.593Z,7.60
2018-12-23T16:49:17.451Z,7.50
2018-12-23T16:51:58.152Z,7.50
2018-12-23T16:54:39.490Z,7.50
2018-12-23T16:57:20.501Z,7.50
2018-12-23T17:00:01.634Z,7.50
2018-12-23T17:02:42.734Z,7.60
2018-12-23T17:05:24.064Z,7.60
2018-12-23T17:08:05.143Z,7.60
2018-12-23T17:10:46.314Z,7.60
2018-12-23T17:13:27.285Z,7.60
2018-12-23T17:16:08.556Z,7.60
2018-12-23T17:18:49.890Z,7.50
2018-12-23T17:21:31.232Z,7.60
2018-12-23T17:24:12.092Z,7.50
2018-12-23T17:26:52.991Z,7.60
2018-12-23T17:29:33.805Z,7.50
2018-12-23T17:32:14.801Z,7.60
2018-12-23T17:34:55.572Z,7.60
2018-12-23T17:37:36.635Z,7.70
2018-12-23T17:40:17.579Z,7.70
2018-12-23T17:42:58.597Z,7.70
2018-12-23T17:45:39.816Z,7.80
2018-12-23T17:48:20.589Z,7.90
2018-12-23T17:51:02.203Z,8.00
2018-12-23T17:53:43.003Z,8.00
2018-12-23T17:56:23.894Z,8.10
2018-12-23T17:59:04.825Z,8.10
2018-12-23T18:01:45.631Z,8.20
2018-12-23T18:04:26.901Z,8.20
2018-12-23T18:07:08.138Z,8.30
2018-12-23T18:09:49.489Z,8.30
2018-12-23T18:12:30.700Z,8.30
2018-12-23T18:15:12.182Z,8.40
2018-12-23T18:17:52.831Z,8.40
2018-12-23T18:20:34.061Z,8.50
2018-12-23T18:23:15.283Z,8.60
2018-12-23T18:25:56.181Z,8.50
2018-12-23T18:28:37.569Z,8.60
2018-12-23T18:31:19.064Z,8.70
2018-12-23T18:34:00.028Z,8.70
2018-12-23T18:36:41.035Z,8.70
2018-12-23T18:39:21.800Z,8.80
2018-12-23T18:42:02.705Z,8.80
2018-12-23T18:44:43.751Z,8.90
2018-12-23T18:47:24.733Z,8.90
2018-12-23T18:50:06.239Z,9.00
2018-12-23T18:52:47.481Z,9.00
2018-12-23T18:55:28.326Z,9.00
2018-12-23T18:58:09.057Z,9.00
2018-12-23T19:00:50.094Z,9.00
2018-12-23T19:03:31.435Z,9.10
2018-12-23T19:06:12.464Z,9.10
2018-12-23T19:08:59.565Z,9.10
2018-12-23T19:11:36.897Z,9.10
2018-12-23T19:14:17.630Z,9.10
2018-12-23T19:16:58.310Z,9.10
2018-12-23T19:19:39.502Z,9.20
2018-12-23T19:22:20.680Z,9.20
2018-12-23T19:25:01.834Z,9.20
2018-12-23T19:27:42.964Z,9.20
2018-12-23T19:30:24.014Z,9.30
2018-12-23T19:33:04.810Z,9.40
2018-12-23T19:35:45.921Z,9.40
2018-12-23T19:38:27.437Z,9.40
2018-12-23T19:41:08.581Z,9.40
2018-12-23T19:43:49.628Z,9.40
2018-12-23T19:46:30.849Z,9.40
2018-12-23T19:49:12.187Z,9.50
2018-12-23T19:51:53.353Z,9.40
2018-12-23T19:54:34.140Z,9.50
2018-12-23T19:57:14.933Z,9.50
2018-12-23T19:59:55.728Z,9.60
2018-12-23T20:02:37.066Z,9.60
2018-12-23T20:05:17.818Z,9.70
2018-12-23T20:07:58.968Z,9.60
2018-12-23T20:10:40.407Z,9.70
2018-12-23T20:13:21.480Z,9.70
2018-12-23T20:16:02.182Z,9.70
2018-12-23T20:18:43.196Z,9.70
2018-12-23T20:21:24.312Z,9.70
2018-12-23T20:24:04.968Z,9.80
2018-12-23T20:26:45.809Z,9.80
2018-12-23T20:29:27.061Z,9.80
2018-12-23T20:32:07.890Z,9.80
2018-12-23T20:34:49.040Z,9.70
2018-12-23T20:37:29.737Z,9.80
2018-12-23T20:40:10.411Z,9.80
2018-12-23T20:42:51.097Z,9.90
2018-12-23T20:45:33.050Z,9.90
2018-12-23T20:48:14.505Z,9.90
2018-12-23T20:50:55.132Z,9.90
2018-12-23T20:53:36.415Z,9.90
2018-12-23T20:56:17.333Z,10.00
2018-12-23T20:58:57.906Z,10.10
2018-12-23T21:01:39.192Z,10.00
2018-12-23T21:04:20.054Z,10.10
2018-12-23T21:07:01.104Z,10.10
2018-12-23T21:09:42.228Z,10.20
2018-12-23T21:12:23.161Z,10.20
2018-12-23T21:15:04.584Z,10.20
2018-12-23T21:17:45.771Z,10.20
2018-12-23T21:20:27.229Z,10.20
2018-12-23T21:23:08.316Z,10.20
2018-12-23T21:25:49.273Z,10.20
2018-12-23T21:28:30.179Z,10.20
2018-12-23T21:31:11.629Z,10.20
2018-12-23T21:36:43.140Z,10.30
2018-12-23T21:39:23.877Z,10.30
2018-12-23T21:42:04.686Z,10.30
2018-12-23T21:44:45.622Z,10.30
2018-12-23T21:47:26.771Z,10.30
2018-12-23T21:50:07.980Z,10.40
2018-12-23T21:52:48.889Z,10.40
2018-12-23T21:55:29.818Z,10.40
2018-12-23T21:58:10.516Z,10.40
2018-12-23T22:00:51.697Z,10.40
2018-12-23T22:03:32.406Z,10.50
2018-12-23T22:06:13.605Z,10.40
2018-12-23T22:08:54.553Z,10.40
2018-12-23T22:11:35.192Z,10.50
2018-12-23T22:14:16.288Z,10.50
2018-12-23T22:16:57.097Z,10.50
2018-12-23T22:19:38.258Z,10.50
2018-12-23T22:22:19.418Z,10.50
2018-12-23T22:25:00.764Z,10.50
2018-12-23T22:27:41.644Z,10.50
2018-12-23T22:30:22.592Z,10.50
2018-12-23T22:33:03.788Z,10.50
2018-12-23T22:35:44.678Z,10.60
2018-12-23T22:38:25.560Z,10.60
2018-12-23T22:41:06.492Z,10.50
2018-12-23T22:43:47.431Z,10.50
2018-12-23T22:46:29.034Z,10.50
2018-12-23T22:49:10.129Z,10.60
2018-12-23T22:51:50.720Z,10.60
2018-12-23T22:54:31.912Z,10.50
2018-12-23T22:57:13.178Z,10.60
2018-12-23T22:59:54.477Z,10.60
2018-12-23T23:02:35.361Z,10.60
2018-12-23T23:05:15.981Z,10.70
2018-12-23T23:07:57.496Z,10.70
2018-12-23T23:10:38.505Z,10.80
2018-12-23T23:13:19.836Z,10.90
2018-12-23T23:16:00.620Z,10.80
2018-12-23T23:18:41.876Z,10.80
2018-12-23T23:21:22.520Z,10.80
2018-12-23T23:24:03.798Z,10.90
2018-12-23T23:26:44.914Z,10.80
2018-12-23T23:29:25.858Z,10.90
2018-12-23T23:32:06.673Z,10.90
2018-12-23T23:34:47.403Z,10.80
2018-12-23T23:37:28.136Z,9.90
2018-12-23T23:40:08.956Z,10.80
2018-12-23T23:42:49.697Z,10.80
2018-12-23T23:45:30.305Z,10.90
2018-12-23T23:48:11.264Z,10.90
2018-12-23T23:50:52.648Z,10.80
2018-12-23T23:53:33.544Z,10.80
2018-12-23T23:56:15.045Z,10.90
2018-12-23T23:58:56.346Z,10.90
